sensor_id;sensor_type;location;lat;lon;timestamp;P1;durP1;ratioP1;P2;durP2;ratioP2
8462;SDS011;4268;52.506;13.462;2023-06-24T00:02:13;9.90;;;9.20;;
8462;SDS011;4268;52.506;13.462;2023-06-24T00:04:39;11.00;;;10.20;;
8462;SDS011;4268;52.506;13.462;2023-06-24T00:07:04;11.80;;;10.90;;
8462;SDS011;4268;52.506;13.462;2023-06-24T00:09:31;10.57;;;9.87;;
8462;SDS011;4268;52.506;13.462;2023-06-24T00:11:57;12.20;;;11.30;;
8462;SDS011;4268;52.506;13.462;2023-06-24T00:14:26;12.83;;;11.93;;
8462;SDS011;4268;52.506;13.462;2023-06-24T00:16:52;12.87;;;11.87;;
8462;SDS011;4268;52.506;13.462;2023-06-24T00:19:19;12.80;;;11.90;;
8462;SDS011;4268;52.506;13.462;2023-06-24T00:21:46;12.23;;;11.43;;
8462;SDS011;4268;52.506;13.462;2023-06-24T00:24:12;12.43;;;11.63;;
8462;SDS011;4268;52.506;13.462;2023-06-24T00:26:37;13.80;;;12.80;;
8462;SDS011;4268;52.506;13.462;2023-06-24T00:29:03;15.50;;;14.40;;
8462;SDS011;4268;52.506;13.462;2023-06-24T00:31:28;13.50;;;12.50;;
8462;SDS011;4268;52.506;13.462;2023-06-24T00:33:54;11.73;;;10.93;;
8462;SDS011;4268;52.506;13.462;2023-06-24T00:36:20;12.17;;;11.27;;
8462;SDS011;4268;52.506;13.462;2023-06-24T00:38:46;13.07;;;12.07;;
8462;SDS011;4268;52.506;13.462;2023-06-24T00:41:13;12.60;;;11.70;;
8462;SDS011;4268;52.506;13.462;2023-06-24T00:43:41;12.10;;;11.20;;
8462;SDS011;4268;52.506;13.462;2023-06-24T00:46:06;12.03;;;11.10;;
8462;SDS011;4268;52.506;13.462;2023-06-24T00:48:32;12.40;;;11.50;;
8462;SDS011;4268;52.506;13.462;2023-06-24T00:50:57;12.70;;;11.87;;
8462;SDS011;4268;52.506;13.462;2023-06-24T00:53:23;14.33;;;13.30;;
8462;SDS011;4268;52.506;13.462;2023-06-24T00:55:49;13.30;;;12.40;;
8462;SDS011;4268;52.506;13.462;2023-06-24T00:58:17;14.07;;;13.07;;
8462;SDS011;4268;52.506;13.462;2023-06-24T01:00:45;15.50;;;14.30;;
8462;SDS011;4268;52.506;13.462;2023-06-24T01:03:13;15.03;;;13.90;;
8462;SDS011;4268;52.506;13.462;2023-06-24T01:05:43;16.50;;;15.20;;
8462;SDS011;4268;52.506;13.462;2023-06-24T01:08:09;15.53;;;14.43;;
8462;SDS011;4268;52.506;13.462;2023-06-24T01:10:40;15.13;;;14.03;;
8462;SDS011;4268;52.506;13.462;2023-06-24T01:13:06;14.90;;;13.80;;
8462;SDS011;4268;52.506;13.462;2023-06-24T01:15:32;14.73;;;13.63;;
8462;SDS011;4268;52.506;13.462;2023-06-24T01:18:18;14.30;;;13.20;;
8462;SDS011;4268;52.506;13.462;2023-06-24T01:21:03;14.67;;;13.57;;
8462;SDS011;4268;52.506;13.462;2023-06-24T01:23:51;14.43;;;13.43;;
8462;SDS011;4268;52.506;13.462;2023-06-24T01:29:29;15.57;;;14.47;;
8462;SDS011;4268;52.506;13.462;2023-06-24T01:32:21;15.10;;;14.10;;
8462;SDS011;4268;52.506;13.462;2023-06-24T01:35:06;16.17;;;14.87;;
8462;SDS011;4268;52.506;13.462;2023-06-24T01:37:46;15.17;;;14.07;;
8462;SDS011;4268;52.506;13.462;2023-06-24T01:40:25;15.10;;;13.93;;
8462;SDS011;4268;52.506;13.462;2023-06-24T01:42:53;15.43;;;14.13;;
8462;SDS011;4268;52.506;13.462;2023-06-24T01:45:23;16.13;;;15.03;;
8462;SDS011;4268;52.506;13.462;2023-06-24T01:48:00;15.23;;;14.23;;
8462;SDS011;4268;52.506;13.462;2023-06-24T01:50:33;13.57;;;12.67;;
8462;SDS011;4268;52.506;13.462;2023-06-24T01:53:00;13.53;;;12.60;;
8462;SDS011;4268;52.506;13.462;2023-06-24T01:55:29;14.30;;;13.30;;
8462;SDS011;4268;52.506;13.462;2023-06-24T01:57:57;12.77;;;11.77;;
8462;SDS011;4268;52.506;13.462;2023-06-24T02:00:24;12.40;;;11.60;;
8462;SDS011;4268;52.506;13.462;2023-06-24T02:02:51;12.77;;;11.87;;
8462;SDS011;4268;52.506;13.462;2023-06-24T02:05:18;11.53;;;10.73;;
8462;SDS011;4268;52.506;13.462;2023-06-24T02:07:46;11.73;;;10.87;;
8462;SDS011;4268;52.506;13.462;2023-06-24T02:10:13;11.63;;;10.77;;
8462;SDS011;4268;52.506;13.462;2023-06-24T02:12:39;12.17;;;11.13;;
8462;SDS011;4268;52.506;13.462;2023-06-24T02:15:06;11.57;;;10.77;;
8462;SDS011;4268;52.506;13.462;2023-06-24T02:17:34;12.23;;;11.30;;
8462;SDS011;4268;52.506;13.462;2023-06-24T02:20:00;13.33;;;12.33;;
8462;SDS011;4268;52.506;13.462;2023-06-24T02:22:26;11.80;;;11.00;;
8462;SDS011;4268;52.506;13.462;2023-06-24T02:24:52;12.03;;;11.10;;
8462;SDS011;4268;52.506;13.462;2023-06-24T02:27:19;11.87;;;10.97;;
8462;SDS011;4268;52.506;13.462;2023-06-24T02:29:44;11.87;;;10.97;;
8462;SDS011;4268;52.506;13.462;2023-06-24T02:32:11;11.20;;;10.40;;
8462;SDS011;4268;52.506;13.462;2023-06-24T02:34:37;11.77;;;10.83;;
8462;SDS011;4268;52.506;13.462;2023-06-24T02:37:03;12.57;;;11.63;;
8462;SDS011;4268;52.506;13.462;2023-06-24T02:39:29;12.40;;;11.37;;
8462;SDS011;4268;52.506;13.462;2023-06-24T02:41:55;11.60;;;10.80;;
8462;SDS011;4268;52.506;13.462;2023-06-24T02:44:20;11.37;;;10.67;;
8462;SDS011;4268;52.506;13.462;2023-06-24T02:46:46;11.47;;;10.63;;
8462;SDS011;4268;52.506;13.462;2023-06-24T02:49:14;11.20;;;10.33;;
8462;SDS011;4268;52.506;13.462;2023-06-24T02:51:42;12.17;;;11.20;;
8462;SDS011;4268;52.506;13.462;2023-06-24T02:54:09;11.50;;;10.60;;
8462;SDS011;4268;52.506;13.462;2023-06-24T02:56:37;11.23;;;10.33;;
8462;SDS011;4268;52.506;13.462;2023-06-24T02:59:08;10.80;;;10.00;;
8462;SDS011;4268;52.506;13.462;2023-06-24T03:01:34;11.33;;;10.43;;
8462;SDS011;4268;52.506;13.462;2023-06-24T03:04:04;10.47;;;9.77;;
8462;SDS011;4268;52.506;13.462;2023-06-24T03:06:31;11.30;;;10.47;;
8462;SDS011;4268;52.506;13.462;2023-06-24T03:08:57;11.30;;;10.40;;
8462;SDS011;4268;52.506;13.462;2023-06-24T03:11:23;10.90;;;10.10;;
8462;SDS011;4268;52.506;13.462;2023-06-24T03:13:48;11.03;;;9.97;;
8462;SDS011;4268;52.506;13.462;2023-06-24T03:16:14;11.03;;;10.33;;
8462;SDS011;4268;52.506;13.462;2023-06-24T03:18:42;11.20;;;10.37;;
8462;SDS011;4268;52.506;13.462;2023-06-24T03:21:08;11.80;;;10.90;;
8462;SDS011;4268;52.506;13.462;2023-06-24T03:23:34;12.23;;;11.23;;
8462;SDS011;4268;52.506;13.462;2023-06-24T03:26:00;11.30;;;10.40;;
8462;SDS011;4268;52.506;13.462;2023-06-24T03:28:27;10.50;;;9.60;;
8462;SDS011;4268;52.506;13.462;2023-06-24T03:30:56;10.40;;;9.60;;
8462;SDS011;4268;52.506;13.462;2023-06-24T03:33:22;11.10;;;10.20;;
8462;SDS011;4268;52.506;13.462;2023-06-24T03:35:49;10.97;;;10.27;;
8462;SDS011;4268;52.506;13.462;2023-06-24T03:38:15;11.50;;;10.60;;
8462;SDS011;4268;52.506;13.462;2023-06-24T03:40:40;11.37;;;10.60;;
8462;SDS011;4268;52.506;13.462;2023-06-24T03:43:06;11.17;;;10.43;;
8462;SDS011;4268;52.506;13.462;2023-06-24T03:45:31;11.80;;;10.97;;
8462;SDS011;4268;52.506;13.462;2023-06-24T03:47:57;11.83;;;11.03;;
8462;SDS011;4268;52.506;13.462;2023-06-24T03:50:22;11.80;;;11.00;;
8462;SDS011;4268;52.506;13.462;2023-06-24T03:52:48;11.13;;;10.33;;
8462;SDS011;4268;52.506;13.462;2023-06-24T03:55:13;11.13;;;10.23;;
8462;SDS011;4268;52.506;13.462;2023-06-24T03:57:39;10.50;;;9.70;;
8462;SDS011;4268;52.506;13.462;2023-06-24T04:00:04;11.83;;;9.70;;
8462;SDS011;4268;52.506;13.462;2023-06-24T04:02:48;10.47;;;9.67;;
8462;SDS011;4268;52.506;13.462;2023-06-24T04:05:14;11.87;;;10.97;;
8462;SDS011;4268;52.506;13.462;2023-06-24T04:07:39;10.50;;;9.67;;
8462;SDS011;4268;52.506;13.462;2023-06-24T04:10:05;10.80;;;9.90;;
8462;SDS011;4268;52.506;13.462;2023-06-24T04:12:34;10.73;;;9.83;;
8462;SDS011;4268;52.506;13.462;2023-06-24T04:15:01;10.13;;;9.33;;
8462;SDS011;4268;52.506;13.462;2023-06-24T04:17:28;9.63;;;8.93;;
8462;SDS011;4268;52.506;13.462;2023-06-24T04:19:54;9.80;;;9.10;;
8462;SDS011;4268;52.506;13.462;2023-06-24T04:22:19;9.77;;;9.07;;
8462;SDS011;4268;52.506;13.462;2023-06-24T04:24:45;12.50;;;11.47;;
8462;SDS011;4268;52.506;13.462;2023-06-24T04:27:10;9.63;;;8.83;;
8462;SDS011;4268;52.506;13.462;2023-06-24T04:29:35;9.27;;;8.67;;
8462;SDS011;4268;52.506;13.462;2023-06-24T04:32:01;9.13;;;8.43;;
8462;SDS011;4268;52.506;13.462;2023-06-24T04:34:27;9.33;;;8.63;;
8462;SDS011;4268;52.506;13.462;2023-06-24T04:36:53;9.83;;;9.03;;
8462;SDS011;4268;52.506;13.462;2023-06-24T04:39:18;9.67;;;8.87;;
8462;SDS011;4268;52.506;13.462;2023-06-24T04:41:44;10.17;;;9.30;;
8462;SDS011;4268;52.506;13.462;2023-06-24T04:44:09;10.33;;;9.43;;
8462;SDS011;4268;52.506;13.462;2023-06-24T04:46:35;9.73;;;9.03;;
8462;SDS011;4268;52.506;13.462;2023-06-24T04:49:02;10.67;;;9.80;;
8462;SDS011;4268;52.506;13.462;2023-06-24T04:51:27;9.57;;;8.87;;
8462;SDS011;4268;52.506;13.462;2023-06-24T04:53:53;10.23;;;9.40;;
8462;SDS011;4268;52.506;13.462;2023-06-24T04:56:20;10.33;;;9.47;;
8462;SDS011;4268;52.506;13.462;2023-06-24T04:58:45;10.73;;;9.83;;
8462;SDS011;4268;52.506;13.462;2023-06-24T05:01:13;11.00;;;10.20;;
8462;SDS011;4268;52.506;13.462;2023-06-24T05:03:39;10.33;;;9.63;;
8462;SDS011;4268;52.506;13.462;2023-06-24T05:06:04;10.53;;;9.57;;
8462;SDS011;4268;52.506;13.462;2023-06-24T05:08:30;9.77;;;8.97;;
8462;SDS011;4268;52.506;13.462;2023-06-24T05:10:58;8.90;;;8.30;;
8462;SDS011;4268;52.506;13.462;2023-06-24T05:13:24;9.20;;;8.40;;
8462;SDS011;4268;52.506;13.462;2023-06-24T05:15:49;8.90;;;8.20;;
8462;SDS011;4268;52.506;13.462;2023-06-24T05:18:15;9.47;;;8.57;;
8462;SDS011;4268;52.506;13.462;2023-06-24T05:20:40;8.37;;;7.37;;
8462;SDS011;4268;52.506;13.462;2023-06-24T05:23:06;8.80;;;8.10;;
8462;SDS011;4268;52.506;13.462;2023-06-24T05:25:31;8.20;;;7.50;;
8462;SDS011;4268;52.506;13.462;2023-06-24T05:27:57;8.83;;;8.13;;
8462;SDS011;4268;52.506;13.462;2023-06-24T05:30:25;8.77;;;7.97;;
8462;SDS011;4268;52.506;13.462;2023-06-24T05:32:51;8.60;;;8.00;;
8462;SDS011;4268;52.506;13.462;2023-06-24T05:35:16;8.07;;;7.37;;
8462;SDS011;4268;52.506;13.462;2023-06-24T05:37:42;8.60;;;7.87;;
8462;SDS011;4268;52.506;13.462;2023-06-24T05:40:07;8.93;;;8.17;;
8462;SDS011;4268;52.506;13.462;2023-06-24T05:42:34;8.50;;;7.90;;
8462;SDS011;4268;52.506;13.462;2023-06-24T05:45:00;7.77;;;7.10;;
8462;SDS011;4268;52.506;13.462;2023-06-24T05:47:25;7.80;;;7.17;;
8462;SDS011;4268;52.506;13.462;2023-06-24T05:49:51;7.60;;;6.90;;
8462;SDS011;4268;52.506;13.462;2023-06-24T05:52:16;7.80;;;7.20;;
8462;SDS011;4268;52.506;13.462;2023-06-24T05:54:42;7.83;;;7.13;;
8462;SDS011;4268;52.506;13.462;2023-06-24T05:57:07;7.03;;;6.53;;
8462;SDS011;4268;52.506;13.462;2023-06-24T05:59:34;7.90;;;7.30;;
8462;SDS011;4268;52.506;13.462;2023-06-24T06:01:59;7.10;;;6.60;;
8462;SDS011;4268;52.506;13.462;2023-06-24T06:04:26;7.53;;;6.93;;
8462;SDS011;4268;52.506;13.462;2023-06-24T06:06:56;7.40;;;6.63;;
8462;SDS011;4268;52.506;13.462;2023-06-24T06:09:21;6.00;;;5.40;;
8462;SDS011;4268;52.506;13.462;2023-06-24T06:11:47;6.00;;;5.50;;
8462;SDS011;4268;52.506;13.462;2023-06-24T06:14:13;6.15;;;5.63;;
8462;SDS011;4268;52.506;13.462;2023-06-24T06:16:39;6.10;;;5.63;;
8462;SDS011;4268;52.506;13.462;2023-06-24T06:19:04;5.63;;;5.13;;
8462;SDS011;4268;52.506;13.462;2023-06-24T06:21:30;6.10;;;5.63;;
8462;SDS011;4268;52.506;13.462;2023-06-24T06:23:55;5.32;;;4.88;;
8462;SDS011;4268;52.506;13.462;2023-06-24T06:26:21;6.13;;;5.55;;
8462;SDS011;4268;52.506;13.462;2023-06-24T06:28:47;6.60;;;6.00;;
8462;SDS011;4268;52.506;13.462;2023-06-24T06:31:13;6.43;;;6.03;;
8462;SDS011;4268;52.506;13.462;2023-06-24T06:33:39;5.80;;;5.30;;
8462;SDS011;4268;52.506;13.462;2023-06-24T06:36:04;5.70;;;5.20;;
8462;SDS011;4268;52.506;13.462;2023-06-24T06:38:31;5.40;;;4.90;;
8462;SDS011;4268;52.506;13.462;2023-06-24T06:40:57;5.35;;;4.95;;
8462;SDS011;4268;52.506;13.462;2023-06-24T06:43:23;5.85;;;5.45;;
8462;SDS011;4268;52.506;13.462;2023-06-24T06:45:49;6.55;;;6.15;;
8462;SDS011;4268;52.506;13.462;2023-06-24T06:48:14;5.75;;;5.38;;
8462;SDS011;4268;52.506;13.462;2023-06-24T06:50:41;5.03;;;4.63;;
8462;SDS011;4268;52.506;13.462;2023-06-24T06:53:06;5.18;;;4.70;;
8462;SDS011;4268;52.506;13.462;2023-06-24T06:55:32;4.65;;;4.35;;
8462;SDS011;4268;52.506;13.462;2023-06-24T06:57:57;5.65;;;5.03;;
8462;SDS011;4268;52.506;13.462;2023-06-24T07:00:23;5.18;;;4.88;;
8462;SDS011;4268;52.506;13.462;2023-06-24T07:02:49;5.40;;;5.00;;
8462;SDS011;4268;52.506;13.462;2023-06-24T07:05:16;5.30;;;5.00;;
8462;SDS011;4268;52.506;13.462;2023-06-24T07:07:41;6.13;;;5.63;;
8462;SDS011;4268;52.506;13.462;2023-06-24T07:10:09;5.88;;;5.38;;
8462;SDS011;4268;52.506;13.462;2023-06-24T07:12:35;5.88;;;5.47;;
8462;SDS011;4268;52.506;13.462;2023-06-24T07:15:00;7.07;;;6.57;;
8462;SDS011;4268;52.506;13.462;2023-06-24T07:17:26;6.13;;;5.72;;
8462;SDS011;4268;52.506;13.462;2023-06-24T07:19:51;7.03;;;6.43;;
8462;SDS011;4268;52.506;13.462;2023-06-24T07:22:17;6.93;;;6.22;;
8462;SDS011;4268;52.506;13.462;2023-06-24T07:24:42;7.10;;;6.50;;
8462;SDS011;4268;52.506;13.462;2023-06-24T07:27:08;6.30;;;5.70;;
8462;SDS011;4268;52.506;13.462;2023-06-24T07:29:33;5.60;;;5.10;;
8462;SDS011;4268;52.506;13.462;2023-06-24T07:32:01;4.77;;;4.47;;
8462;SDS011;4268;52.506;13.462;2023-06-24T07:34:26;5.53;;;5.10;;
8462;SDS011;4268;52.506;13.462;2023-06-24T07:36:52;5.60;;;5.20;;
8462;SDS011;4268;52.506;13.462;2023-06-24T07:39:17;5.77;;;5.37;;
8462;SDS011;4268;52.506;13.462;2023-06-24T07:41:43;4.93;;;4.53;;
8462;SDS011;4268;52.506;13.462;2023-06-24T07:44:08;5.03;;;4.63;;
8462;SDS011;4268;52.506;13.462;2023-06-24T07:46:34;5.40;;;5.00;;
8462;SDS011;4268;52.506;13.462;2023-06-24T07:49:00;5.70;;;5.30;;
8462;SDS011;4268;52.506;13.462;2023-06-24T07:51:26;6.20;;;5.37;;
8462;SDS011;4268;52.506;13.462;2023-06-24T07:53:54;5.20;;;4.80;;
8462;SDS011;4268;52.506;13.462;2023-06-24T07:56:20;5.40;;;5.00;;
8462;SDS011;4268;52.506;13.462;2023-06-24T07:58:45;5.13;;;4.83;;
8462;SDS011;4268;52.506;13.462;2023-06-24T08:01:11;5.40;;;5.00;;
8462;SDS011;4268;52.506;13.462;2023-06-24T08:03:36;5.37;;;4.83;;
8462;SDS011;4268;52.506;13.462;2023-06-24T08:06:02;4.70;;;4.30;;
8462;SDS011;4268;52.506;13.462;2023-06-24T08:08:28;4.50;;;4.20;;
8462;SDS011;4268;52.506;13.462;2023-06-24T08:10:53;4.63;;;4.23;;
8462;SDS011;4268;52.506;13.462;2023-06-24T08:13:20;4.80;;;4.40;;
8462;SDS011;4268;52.506;13.462;2023-06-24T08:15:47;4.27;;;3.93;;
8462;SDS011;4268;52.506;13.462;2023-06-24T08:18:13;4.70;;;4.22;;
8462;SDS011;4268;52.506;13.462;2023-06-24T08:20:38;4.60;;;4.20;;
8462;SDS011;4268;52.506;13.462;2023-06-24T08:23:04;4.83;;;4.43;;
8462;SDS011;4268;52.506;13.462;2023-06-24T08:25:29;5.00;;;4.60;;
8462;SDS011;4268;52.506;13.462;2023-06-24T08:27:55;5.20;;;4.80;;
8462;SDS011;4268;52.506;13.462;2023-06-24T08:30:21;4.63;;;4.33;;
8462;SDS011;4268;52.506;13.462;2023-06-24T08:32:47;5.10;;;4.70;;
8462;SDS011;4268;52.506;13.462;2023-06-24T08:35:12;5.20;;;4.80;;
8462;SDS011;4268;52.506;13.462;2023-06-24T08:37:39;4.50;;;4.20;;
8462;SDS011;4268;52.506;13.462;2023-06-24T08:40:05;4.97;;;4.47;;
8462;SDS011;4268;52.506;13.462;2023-06-24T08:42:31;4.63;;;4.30;;
8462;SDS011;4268;52.506;13.462;2023-06-24T08:44:57;4.73;;;4.43;;
8462;SDS011;4268;52.506;13.462;2023-06-24T08:47:25;5.43;;;5.03;;
8462;SDS011;4268;52.506;13.462;2023-06-24T08:49:53;4.93;;;4.53;;
8462;SDS011;4268;52.506;13.462;2023-06-24T08:52:26;5.17;;;4.80;;
8462;SDS011;4268;52.506;13.462;2023-06-24T08:54:56;5.03;;;4.70;;
8462;SDS011;4268;52.506;13.462;2023-06-24T08:57:24;4.77;;;4.47;;
8462;SDS011;4268;52.506;13.462;2023-06-24T08:59:49;5.30;;;4.90;;
8462;SDS011;4268;52.506;13.462;2023-06-24T09:02:15;4.87;;;4.57;;
8462;SDS011;4268;52.506;13.462;2023-06-24T09:04:40;5.13;;;4.83;;
8462;SDS011;4268;52.506;13.462;2023-06-24T09:07:06;5.50;;;5.10;;
8462;SDS011;4268;52.506;13.462;2023-06-24T09:09:32;5.53;;;5.03;;
8462;SDS011;4268;52.506;13.462;2023-06-24T09:11:58;5.00;;;4.70;;
8462;SDS011;4268;52.506;13.462;2023-06-24T09:14:25;5.03;;;4.73;;
8462;SDS011;4268;52.506;13.462;2023-06-24T09:16:58;5.33;;;4.80;;
8462;SDS011;4268;52.506;13.462;2023-06-24T09:19:28;4.83;;;4.53;;
8462;SDS011;4268;52.506;13.462;2023-06-24T09:22:04;4.67;;;4.37;;
8462;SDS011;4268;52.506;13.462;2023-06-24T09:24:31;4.47;;;4.17;;
8462;SDS011;4268;52.506;13.462;2023-06-24T09:26:58;4.47;;;4.17;;
8462;SDS011;4268;52.506;13.462;2023-06-24T09:29:27;4.60;;;4.30;;
8462;SDS011;4268;52.506;13.462;2023-06-24T09:31:56;5.63;;;5.17;;
8462;SDS011;4268;52.506;13.462;2023-06-24T09:34:23;4.70;;;4.40;;
8462;SDS011;4268;52.506;13.462;2023-06-24T09:36:52;4.60;;;4.30;;
8462;SDS011;4268;52.506;13.462;2023-06-24T09:39:19;3.90;;;3.70;;
8462;SDS011;4268;52.506;13.462;2023-06-24T09:41:54;4.63;;;4.23;;
8462;SDS011;4268;52.506;13.462;2023-06-24T09:44:23;5.00;;;4.70;;
8462;SDS011;4268;52.506;13.462;2023-06-24T09:46:50;4.00;;;3.80;;
8462;SDS011;4268;52.506;13.462;2023-06-24T09:49:15;4.40;;;4.10;;
8462;SDS011;4268;52.506;13.462;2023-06-24T09:51:45;4.57;;;4.27;;
8462;SDS011;4268;52.506;13.462;2023-06-24T09:54:13;4.20;;;3.90;;
8462;SDS011;4268;52.506;13.462;2023-06-24T09:56:41;4.20;;;3.90;;
8462;SDS011;4268;52.506;13.462;2023-06-24T09:59:12;4.80;;;4.40;;
8462;SDS011;4268;52.506;13.462;2023-06-24T10:01:39;4.40;;;4.10;;
8462;SDS011;4268;52.506;13.462;2023-06-24T10:04:06;4.17;;;3.97;;
8462;SDS011;4268;52.506;13.462;2023-06-24T10:06:32;4.27;;;3.93;;
8462;SDS011;4268;52.506;13.462;2023-06-24T10:08:58;4.40;;;4.10;;
8462;SDS011;4268;52.506;13.462;2023-06-24T10:11:25;4.47;;;4.17;;
8462;SDS011;4268;52.506;13.462;2023-06-24T10:13:51;4.20;;;3.93;;
8462;SDS011;4268;52.506;13.462;2023-06-24T10:16:16;4.07;;;3.80;;
8462;SDS011;4268;52.506;13.462;2023-06-24T10:18:43;4.13;;;3.83;;
8462;SDS011;4268;52.506;13.462;2023-06-24T10:21:10;4.10;;;3.80;;
8462;SDS011;4268;52.506;13.462;2023-06-24T10:26:25;4.10;;;3.80;;
8462;SDS011;4268;52.506;13.462;2023-06-24T10:31:50;3.97;;;3.67;;
8462;SDS011;4268;52.506;13.462;2023-06-24T10:36:53;3.77;;;3.47;;
8462;SDS011;4268;52.506;13.462;2023-06-24T10:47:34;3.70;;;3.50;;
8462;SDS011;4268;52.506;13.462;2023-06-24T10:50:00;4.00;;;3.70;;
8462;SDS011;4268;52.506;13.462;2023-06-24T10:52:26;4.73;;;4.27;;
8462;SDS011;4268;52.506;13.462;2023-06-24T10:54:52;4.43;;;4.10;;
8462;SDS011;4268;52.506;13.462;2023-06-24T10:57:22;4.27;;;3.97;;
8462;SDS011;4268;52.506;13.462;2023-06-24T10:59:49;4.83;;;4.07;;
8462;SDS011;4268;52.506;13.462;2023-06-24T11:02:16;4.20;;;3.80;;
8462;SDS011;4268;52.506;13.462;2023-06-24T11:07:12;4.23;;;3.97;;
8462;SDS011;4268;52.506;13.462;2023-06-24T11:09:40;4.60;;;4.30;;
8462;SDS011;4268;52.506;13.462;2023-06-24T11:12:05;4.50;;;4.10;;
8462;SDS011;4268;52.506;13.462;2023-06-24T11:14:33;4.37;;;4.10;;
8462;SDS011;4268;52.506;13.462;2023-06-24T11:17:02;4.37;;;4.07;;
8462;SDS011;4268;52.506;13.462;2023-06-24T11:19:29;4.17;;;3.90;;
8462;SDS011;4268;52.506;13.462;2023-06-24T11:21:59;4.23;;;3.93;;
8462;SDS011;4268;52.506;13.462;2023-06-24T11:24:26;4.80;;;4.50;;
8462;SDS011;4268;52.506;13.462;2023-06-24T11:26:52;4.20;;;3.90;;
8462;SDS011;4268;52.506;13.462;2023-06-24T11:29:17;4.67;;;4.37;;
8462;SDS011;4268;52.506;13.462;2023-06-24T11:31:44;3.93;;;3.73;;
8462;SDS011;4268;52.506;13.462;2023-06-24T11:34:10;4.47;;;4.10;;
8462;SDS011;4268;52.506;13.462;2023-06-24T11:36:36;4.20;;;3.90;;
8462;SDS011;4268;52.506;13.462;2023-06-24T11:39:02;4.03;;;3.83;;
8462;SDS011;4268;52.506;13.462;2023-06-24T11:41:28;4.23;;;3.93;;
8462;SDS011;4268;52.506;13.462;2023-06-24T11:43:53;4.40;;;4.10;;
8462;SDS011;4268;52.506;13.462;2023-06-24T11:46:25;4.40;;;4.00;;
8462;SDS011;4268;52.506;13.462;2023-06-24T11:48:52;4.30;;;4.03;;
8462;SDS011;4268;52.506;13.462;2023-06-24T11:51:30;4.30;;;4.00;;
8462;SDS011;4268;52.506;13.462;2023-06-24T11:53:58;4.30;;;4.00;;
8462;SDS011;4268;52.506;13.462;2023-06-24T11:56:37;4.13;;;3.90;;
8462;SDS011;4268;52.506;13.462;2023-06-24T11:59:07;4.43;;;4.13;;
8462;SDS011;4268;52.506;13.462;2023-06-24T12:01:42;4.10;;;3.80;;
8462;SDS011;4268;52.506;13.462;2023-06-24T12:04:11;4.20;;;3.90;;
8462;SDS011;4268;52.506;13.462;2023-06-24T12:06:38;4.60;;;4.30;;
8462;SDS011;4268;52.506;13.462;2023-06-24T12:09:05;4.30;;;4.00;;
8462;SDS011;4268;52.506;13.462;2023-06-24T12:11:31;4.30;;;4.00;;
8462;SDS011;4268;52.506;13.462;2023-06-24T12:13:56;4.47;;;4.20;;
8462;SDS011;4268;52.506;13.462;2023-06-24T12:16:22;4.80;;;4.50;;
8462;SDS011;4268;52.506;13.462;2023-06-24T12:18:48;4.57;;;4.27;;
8462;SDS011;4268;52.506;13.462;2023-06-24T12:21:13;4.70;;;4.30;;
8462;SDS011;4268;52.506;13.462;2023-06-24T12:23:39;4.67;;;4.30;;
8462;SDS011;4268;52.506;13.462;2023-06-24T12:26:04;4.57;;;4.20;;
8462;SDS011;4268;52.506;13.462;2023-06-24T12:28:30;4.30;;;4.00;;
8462;SDS011;4268;52.506;13.462;2023-06-24T12:30:55;4.50;;;4.20;;
8462;SDS011;4268;52.506;13.462;2023-06-24T12:33:21;4.40;;;4.10;;
8462;SDS011;4268;52.506;13.462;2023-06-24T12:35:47;4.27;;;3.93;;
8462;SDS011;4268;52.506;13.462;2023-06-24T12:38:13;4.73;;;4.43;;
8462;SDS011;4268;52.506;13.462;2023-06-24T12:40:38;4.40;;;4.20;;
8462;SDS011;4268;52.506;13.462;2023-06-24T12:43:04;4.17;;;3.97;;
8462;SDS011;4268;52.506;13.462;2023-06-24T12:45:30;4.63;;;4.23;;
8462;SDS011;4268;52.506;13.462;2023-06-24T12:47:55;4.60;;;4.27;;
8462;SDS011;4268;52.506;13.462;2023-06-24T12:50:21;5.03;;;4.63;;
8462;SDS011;4268;52.506;13.462;2023-06-24T12:52:46;4.17;;;3.90;;
8462;SDS011;4268;52.506;13.462;2023-06-24T12:55:12;4.50;;;4.20;;
8462;SDS011;4268;52.506;13.462;2023-06-24T12:57:37;4.37;;;4.17;;
8462;SDS011;4268;52.506;13.462;2023-06-24T13:00:06;4.60;;;4.30;;
8462;SDS011;4268;52.506;13.462;2023-06-24T13:02:32;4.13;;;3.83;;
8462;SDS011;4268;52.506;13.462;2023-06-24T13:04:58;4.23;;;3.93;;
8462;SDS011;4268;52.506;13.462;2023-06-24T13:07:23;4.30;;;4.00;;
8462;SDS011;4268;52.506;13.462;2023-06-24T13:09:49;4.47;;;4.17;;
8462;SDS011;4268;52.506;13.462;2023-06-24T13:12:14;4.00;;;3.70;;
8462;SDS011;4268;52.506;13.462;2023-06-24T13:14:40;4.50;;;4.20;;
8462;SDS011;4268;52.506;13.462;2023-06-24T13:17:05;4.47;;;4.13;;
8462;SDS011;4268;52.506;13.462;2023-06-24T13:19:31;4.57;;;4.27;;
8462;SDS011;4268;52.506;13.462;2023-06-24T13:21:57;4.10;;;3.90;;
8462;SDS011;4268;52.506;13.462;2023-06-24T13:24:23;4.43;;;4.13;;
8462;SDS011;4268;52.506;13.462;2023-06-24T13:26:50;4.33;;;4.03;;
8462;SDS011;4268;52.506;13.462;2023-06-24T13:29:16;4.13;;;3.80;;
8462;SDS011;4268;52.506;13.462;2023-06-24T13:31:41;4.60;;;4.20;;
8462;SDS011;4268;52.506;13.462;2023-06-24T13:34:07;4.40;;;4.10;;
8462;SDS011;4268;52.506;13.462;2023-06-24T13:36:36;4.43;;;4.13;;
8462;SDS011;4268;52.506;13.462;2023-06-24T13:39:05;4.50;;;4.20;;
8462;SDS011;4268;52.506;13.462;2023-06-24T13:41:32;4.67;;;3.90;;
8462;SDS011;4268;52.506;13.462;2023-06-24T13:44:02;4.47;;;4.17;;
8462;SDS011;4268;52.506;13.462;2023-06-24T13:46:29;4.30;;;4.00;;
8462;SDS011;4268;52.506;13.462;2023-06-24T13:48:56;4.30;;;3.90;;
8462;SDS011;4268;52.506;13.462;2023-06-24T13:51:22;4.47;;;4.17;;
8462;SDS011;4268;52.506;13.462;2023-06-24T13:53:48;4.13;;;3.80;;
8462;SDS011;4268;52.506;13.462;2023-06-24T13:56:15;4.40;;;4.00;;
8462;SDS011;4268;52.506;13.462;2023-06-24T13:58:41;4.03;;;3.70;;
8462;SDS011;4268;52.506;13.462;2023-06-24T14:01:07;4.20;;;3.90;;
8462;SDS011;4268;52.506;13.462;2023-06-24T14:03:32;4.40;;;4.10;;
8462;SDS011;4268;52.506;13.462;2023-06-24T14:05:58;4.10;;;3.80;;
8462;SDS011;4268;52.506;13.462;2023-06-24T14:08:26;4.17;;;3.87;;
8462;SDS011;4268;52.506;13.462;2023-06-24T14:10:52;4.20;;;3.93;;
8462;SDS011;4268;52.506;13.462;2023-06-24T14:13:18;4.10;;;3.80;;
8462;SDS011;4268;52.506;13.462;2023-06-24T14:15:43;4.20;;;3.90;;
8462;SDS011;4268;52.506;13.462;2023-06-24T14:18:09;4.47;;;4.07;;
8462;SDS011;4268;52.506;13.462;2023-06-24T14:20:35;4.13;;;3.93;;
8462;SDS011;4268;52.506;13.462;2023-06-24T14:23:00;4.10;;;3.80;;
8462;SDS011;4268;52.506;13.462;2023-06-24T14:25:26;4.10;;;3.80;;
8462;SDS011;4268;52.506;13.462;2023-06-24T14:27:51;4.10;;;3.75;;
8462;SDS011;4268;52.506;13.462;2023-06-24T14:30:17;4.43;;;4.13;;
8462;SDS011;4268;52.506;13.462;2023-06-24T14:32:43;4.63;;;4.10;;
8462;SDS011;4268;52.506;13.462;2023-06-24T14:35:08;4.10;;;3.80;;
8462;SDS011;4268;52.506;13.462;2023-06-24T14:37:34;4.27;;;3.90;;
8462;SDS011;4268;52.506;13.462;2023-06-24T14:40:00;4.07;;;3.83;;
8462;SDS011;4268;52.506;13.462;2023-06-24T14:42:25;4.72;;;4.30;;
8462;SDS011;4268;52.506;13.462;2023-06-24T14:44:51;4.53;;;4.23;;
8462;SDS011;4268;52.506;13.462;2023-06-24T14:47:16;5.30;;;4.80;;
8462;SDS011;4268;52.506;13.462;2023-06-24T14:49:42;3.90;;;3.70;;
8462;SDS011;4268;52.506;13.462;2023-06-24T14:52:07;4.30;;;4.10;;
8462;SDS011;4268;52.506;13.462;2023-06-24T14:54:33;4.33;;;4.00;;
8462;SDS011;4268;52.506;13.462;2023-06-24T14:56:58;4.37;;;4.07;;
8462;SDS011;4268;52.506;13.462;2023-06-24T14:59:24;4.10;;;3.80;;
8462;SDS011;4268;52.506;13.462;2023-06-24T15:01:49;4.40;;;4.00;;
8462;SDS011;4268;52.506;13.462;2023-06-24T15:04:14;4.50;;;4.20;;
8462;SDS011;4268;52.506;13.462;2023-06-24T15:06:40;4.60;;;4.30;;
8462;SDS011;4268;52.506;13.462;2023-06-24T15:09:05;4.50;;;4.10;;
8462;SDS011;4268;52.506;13.462;2023-06-24T15:11:31;4.60;;;4.30;;
8462;SDS011;4268;52.506;13.462;2023-06-24T15:13:56;4.07;;;3.80;;